createdAt,value
2022-10-20T00:01:07.897Z,6.90
2022-10-20T00:03:34.275Z,6.93
2022-10-20T00:06:15.852Z,6.90
2022-10-20T00:08:45.052Z,6.88
2022-10-20T00:11:13.645Z,6.85
2022-10-20T00:13:41.473Z,6.53
2022-10-20T00:16:08.357Z,6.64
2022-10-20T00:18:35.645Z,6.70
2022-10-20T00:21:06.952Z,6.60
2022-10-20T00:23:33.420Z,6.64
2022-10-20T00:26:03.386Z,6.65
2022-10-20T00:28:29.831Z,6.69
2022-10-20T00:30:56.711Z,6.53
2022-10-20T00:33:23.808Z,6.64
2022-10-20T00:35:50.207Z,6.68
2022-10-20T00:40:48.097Z,6.59
2022-10-20T00:43:16.366Z,6.61
2022-10-20T00:45:45.094Z,6.66
2022-10-20T00:48:18.693Z,6.67
2022-10-20T00:50:54.074Z,6.72
2022-10-20T00:53:27.843Z,6.70
2022-10-20T00:55:56.568Z,6.72
2022-10-20T00:58:23.436Z,6.67
2022-10-20T01:00:55.410Z,6.66
2022-10-20T01:03:30.625Z,6.68
2022-10-20T01:05:57.126Z,6.60
2022-10-20T01:08:23.497Z,6.64
2022-10-20T01:11:14.863Z,6.60
2022-10-20T01:14:04.332Z,6.68
2022-10-20T01:16:39.596Z,6.67
2022-10-20T01:19:37.441Z,6.64
2022-10-20T01:22:18.698Z,6.65
2022-10-20T01:25:16.085Z,6.61
2022-10-20T01:27:44.662Z,6.51
2022-10-20T01:30:19.391Z,6.55
2022-10-20T01:33:11.452Z,6.60
2022-10-20T01:35:54.361Z,6.61
2022-10-20T01:38:36.789Z,6.54
2022-10-20T01:41:13.929Z,6.41
2022-10-20T01:43:43.474Z,6.37
2022-10-20T01:46:11.953Z,6.30
2022-10-20T01:48:40.367Z,6.29
2022-10-20T01:51:08.554Z,6.45
2022-10-20T01:53:34.916Z,6.55
2022-10-20T01:56:02.195Z,6.55
2022-10-20T01:58:28.488Z,6.47
2022-10-20T02:01:02.705Z,6.41
2022-10-20T02:03:37.475Z,6.49
2022-10-20T02:06:19.300Z,6.65
2022-10-20T02:08:48.620Z,6.72
2022-10-20T02:11:21.153Z,6.38
2022-10-20T02:13:49.809Z,6.42
2022-10-20T02:16:23.433Z,6.59
2022-10-20T02:18:50.402Z,6.60
2022-10-20T02:21:17.068Z,6.71
2022-10-20T02:23:46.061Z,6.76
2022-10-20T02:26:16.582Z,6.75
2022-10-20T02:28:48.078Z,6.66
2022-10-20T02:31:14.719Z,6.69
2022-10-20T02:33:44.385Z,6.59
2022-10-20T02:36:17.077Z,6.67
2022-10-20T02:38:43.949Z,6.58
2022-10-20T02:41:10.513Z,6.61
2022-10-20T02:43:37.170Z,6.68
2022-10-20T02:46:03.564Z,6.70
2022-10-20T02:48:29.927Z,6.74
2022-10-20T02:50:57.163Z,6.60
2022-10-20T02:53:23.504Z,6.70
2022-10-20T02:55:49.860Z,6.63
2022-10-20T02:58:16.170Z,6.64
2022-10-20T03:00:42.511Z,6.82
2022-10-20T03:03:08.827Z,6.72
2022-10-20T03:05:39.921Z,6.96
2022-10-20T03:08:06.272Z,6.91
2022-10-20T03:10:33.251Z,6.90
2022-10-20T03:12:59.556Z,6.74
2022-10-20T03:15:25.886Z,6.69
2022-10-20T03:17:52.179Z,6.77
2022-10-20T03:20:18.512Z,6.64
2022-10-20T03:22:44.833Z,6.72
2022-10-20T03:25:11.217Z,6.80
2022-10-20T03:27:37.859Z,6.76
2022-10-20T03:30:04.874Z,6.75
2022-10-20T03:32:31.230Z,6.88
2022-10-20T03:34:57.548Z,6.72
2022-10-20T03:37:24.006Z,6.90
2022-10-20T03:39:50.581Z,6.79
2022-10-20T03:42:16.952Z,6.89
2022-10-20T03:44:45.031Z,6.92
2022-10-20T03:47:14.455Z,6.78
2022-10-20T03:49:40.876Z,6.82
2022-10-20T03:52:07.229Z,6.86
2022-10-20T03:54:35.514Z,6.85
2022-10-20T03:57:05.385Z,6.72
2022-10-20T03:59:34.105Z,6.80
2022-10-20T04:02:00.505Z,6.77
2022-10-20T04:04:26.931Z,6.64
2022-10-20T04:06:53.281Z,6.77
2022-10-20T04:09:19.632Z,6.86
2022-10-20T04:14:13.510Z,6.95
2022-10-20T04:16:39.888Z,6.89
2022-10-20T04:19:06.194Z,6.98
2022-10-20T04:21:32.587Z,6.82
2022-10-20T04:23:58.914Z,6.88
2022-10-20T04:26:25.222Z,6.85
2022-10-20T04:28:51.558Z,6.74
2022-10-20T04:31:17.889Z,6.79
2022-10-20T04:33:44.214Z,6.85
2022-10-20T04:36:12.543Z,6.91
2022-10-20T04:38:38.867Z,6.82
2022-10-20T04:41:05.525Z,6.83
2022-10-20T04:43:33.011Z,6.60
2022-10-20T04:46:03.909Z,6.74
2022-10-20T04:48:33.574Z,6.58
2022-10-20T04:51:03.766Z,6.60
2022-10-20T04:53:30.150Z,6.60
2022-10-20T04:55:57.596Z,6.57
2022-10-20T04:58:24.633Z,6.44
2022-10-20T05:00:51.042Z,6.43
2022-10-20T05:03:18.973Z,6.43
2022-10-20T05:05:47.122Z,6.39
2022-10-20T05:08:13.533Z,6.42
2022-10-20T05:10:39.865Z,6.52
2022-10-20T05:13:06.233Z,6.37
2022-10-20T05:15:32.591Z,6.57
2022-10-20T05:17:58.983Z,6.54
2022-10-20T05:20:25.354Z,6.60
2022-10-20T05:22:51.693Z,6.70
2022-10-20T05:25:35.598Z,6.57
2022-10-20T05:28:03.096Z,6.67
2022-10-20T05:30:29.502Z,6.59
2022-10-20T05:32:55.858Z,6.66
2022-10-20T05:35:22.238Z,6.47
2022-10-20T05:37:48.585Z,6.50
2022-10-20T05:40:14.952Z,6.60
2022-10-20T05:42:41.304Z,6.60
2022-10-20T05:45:08.603Z,6.36
2022-10-20T05:47:35.121Z,6.57
2022-10-20T05:50:01.461Z,6.44
2022-10-20T05:52:27.832Z,6.33
2022-10-20T05:54:54.164Z,6.41
2022-10-20T05:57:20.501Z,6.25
2022-10-20T05:59:46.929Z,6.41
2022-10-20T06:02:13.471Z,6.36
2022-10-20T06:04:39.845Z,6.41
2022-10-20T06:07:06.282Z,6.59
2022-10-20T06:09:32.743Z,6.69
2022-10-20T06:11:59.145Z,6.62
2022-10-20T06:14:25.968Z,6.69
2022-10-20T06:16:53.729Z,6.65
2022-10-20T06:19:20.107Z,6.58
2022-10-20T06:21:48.847Z,6.52
2022-10-20T06:24:16.893Z,6.50
2022-10-20T06:26:43.700Z,6.69
2022-10-20T06:29:13.117Z,6.60
2022-10-20T06:31:41.886Z,6.69
2022-10-20T06:34:10.606Z,6.65
2022-10-20T06:36:39.053Z,6.51
2022-10-20T06:39:07.914Z,6.72
2022-10-20T06:41:34.787Z,6.73
2022-10-20T06:44:01.226Z,6.64
2022-10-20T06:46:30.536Z,6.75
2022-10-20T06:48:59.744Z,6.90
2022-10-20T06:51:26.597Z,6.96
2022-10-20T06:53:53.206Z,6.92
2022-10-20T06:56:22.836Z,6.95
2022-10-20T06:58:51.095Z,6.92
2022-10-20T07:01:23.417Z,6.94
2022-10-20T07:03:53.052Z,7.11
2022-10-20T07:06:22.265Z,7.07
2022-10-20T07:08:50.839Z,7.05
2022-10-20T07:11:19.437Z,7.02
2022-10-20T07:13:46.230Z,6.80
2022-10-20T07:16:14.942Z,7.05
2022-10-20T07:18:41.605Z,7.14
2022-10-20T07:21:12.220Z,7.19
2022-10-20T07:23:38.803Z,7.15
2022-10-20T07:26:20.468Z,7.01
2022-10-20T07:28:54.631Z,7.23
2022-10-20T07:31:31.544Z,7.13
2022-10-20T07:34:07.415Z,7.16
2022-10-20T07:36:45.482Z,7.16
2022-10-20T07:39:13.336Z,7.34
2022-10-20T07:41:40.184Z,7.15
2022-10-20T07:44:07.655Z,7.23
2022-10-20T07:46:34.203Z,7.27
2022-10-20T07:49:24.002Z,7.29
2022-10-20T07:51:47.564Z,7.16
2022-10-20T07:54:14.006Z,7.22
2022-10-20T07:56:42.386Z,7.18
2022-10-20T07:59:10.729Z,7.17
2022-10-20T08:01:37.949Z,7.42
2022-10-20T08:04:04.731Z,7.36
2022-10-20T08:06:31.147Z,7.44
2022-10-20T08:08:57.611Z,7.59
2022-10-20T08:11:24.438Z,7.49
2022-10-20T08:13:50.911Z,7.60
2022-10-20T08:19:11.217Z,7.64
2022-10-20T08:21:37.514Z,7.71
2022-10-20T08:24:04.117Z,7.86
2022-10-20T08:26:30.533Z,7.88
2022-10-20T08:28:56.879Z,7.87
2022-10-20T08:31:23.488Z,7.96
2022-10-20T08:33:52.849Z,7.97
2022-10-20T08:36:20.293Z,8.02
2022-10-20T08:38:46.697Z,8.14
2022-10-20T08:41:18.874Z,8.17
2022-10-20T08:43:46.550Z,8.14
2022-10-20T08:46:16.194Z,8.40
2022-10-20T08:48:44.294Z,8.48
2022-10-20T08:51:32.013Z,8.60
2022-10-20T08:54:01.647Z,8.51
2022-10-20T08:56:30.866Z,8.69
2022-10-20T08:58:57.488Z,8.79
2022-10-20T09:01:27.521Z,8.88
2022-10-20T09:04:18.394Z,9.07
2022-10-20T09:06:50.902Z,9.06
2022-10-20T09:09:21.118Z,9.11
2022-10-20T09:11:48.169Z,9.29
2022-10-20T09:14:16.543Z,9.34
2022-10-20T09:16:59.184Z,9.40
2022-10-20T09:19:28.321Z,9.51
2022-10-20T09:21:57.951Z,9.56
2022-10-20T09:24:27.397Z,9.68
2022-10-20T09:26:58.736Z,9.77
2022-10-20T09:29:37.379Z,9.76
2022-10-20T09:32:34.046Z,9.76
2022-10-20T09:34:50.232Z,9.87
2022-10-20T09:37:19.730Z,9.90
2022-10-20T09:39:56.054Z,9.94
2022-10-20T09:42:22.407Z,9.91
2022-10-20T09:44:57.950Z,9.89
2022-10-20T09:47:26.654Z,9.91
2022-10-20T09:50:00.928Z,9.99
2022-10-20T09:52:34.224Z,10.06
2022-10-20T09:55:06.708Z,10.05
2022-10-20T09:57:33.633Z,10.09
2022-10-20T10:00:04.670Z,10.07
2022-10-20T10:02:39.918Z,10.17
2022-10-20T10:05:18.943Z,10.31
2022-10-20T10:07:45.552Z,10.25
2022-10-20T10:10:17.711Z,10.25
2022-10-20T10:12:51.818Z,10.34
2022-10-20T10:15:28.720Z,10.36
2022-10-20T10:17:55.880Z,10.26
2022-10-20T10:20:22.149Z,10.29
2022-10-20T10:22:48.849Z,10.44
2022-10-20T10:25:25.173Z,10.38
2022-10-20T10:28:06.876Z,10.45
2022-10-20T10:30:35.862Z,10.53
2022-10-20T10:33:02.231Z,10.43
2022-10-20T10:35:39.899Z,10.53
2022-10-20T10:38:09.631Z,10.55
2022-10-20T10:40:56.637Z,10.61
2022-10-20T10:43:54.438Z,10.63
2022-10-20T10:46:27.235Z,10.65
2022-10-20T10:49:32.274Z,10.67
2022-10-20T10:52:21.794Z,10.69
2022-10-20T10:55:03.131Z,10.71
2022-10-20T10:58:03.252Z,10.74
2022-10-20T11:00:48.293Z,10.78
2022-10-20T11:04:07.055Z,10.67
2022-10-20T11:06:48.804Z,10.74
2022-10-20T11:09:38.020Z,10.75
2022-10-20T11:12:35.575Z,10.85
2022-10-20T11:15:42.908Z,10.87
2022-10-20T11:18:30.990Z,10.94
2022-10-20T11:21:10.839Z,11.01
2022-10-20T11:23:40.147Z,11.01
2022-10-20T11:26:19.243Z,11.08
2022-10-20T11:28:48.260Z,11.14
2022-10-20T11:31:27.938Z,11.15
2022-10-20T11:34:01.739Z,11.15
2022-10-20T11:36:34.663Z,11.27
2022-10-20T11:39:01.011Z,11.36
2022-10-20T11:41:46.843Z,11.42
2022-10-20T11:44:34.397Z,11.41
2022-10-20T11:47:06.155Z,11.44
2022-10-20T11:49:33.210Z,11.48
2022-10-20T11:52:17.519Z,11.50
2022-10-20T11:55:04.252Z,11.47
2022-10-20T11:57:39.443Z,11.47
2022-10-20T12:00:33.274Z,11.54
2022-10-20T12:03:10.837Z,11.64
2022-10-20T12:05:58.180Z,11.63
2022-10-20T12:08:47.508Z,11.63
2022-10-20T12:11:35.729Z,11.61
2022-10-20T12:14:22.032Z,11.63
2022-10-20T12:16:54.262Z,11.54
2022-10-20T12:19:30.093Z,11.61
2022-10-20T12:22:13.588Z,11.58
2022-10-20T12:24:41.221Z,11.61
2022-10-20T12:27:10.411Z,11.55
2022-10-20T12:29:36.685Z,11.62
2022-10-20T12:32:21.531Z,11.59
2022-10-20T12:34:49.714Z,11.56
2022-10-20T12:37:28.961Z,11.58
2022-10-20T12:40:23.032Z,11.59
2022-10-20T12:42:53.872Z,11.57
2022-10-20T12:45:20.172Z,11.57
2022-10-20T12:48:00.498Z,11.56
2022-10-20T12:50:41.009Z,11.64
2022-10-20T12:53:29.171Z,11.66
2022-10-20T12:56:04.324Z,11.68
2022-10-20T12:58:35.928Z,11.67
2022-10-20T13:01:12.352Z,11.71
2022-10-20T13:03:46.654Z,11.63
2022-10-20T13:06:30.048Z,11.40
2022-10-20T13:09:02.530Z,11.56
2022-10-20T13:11:38.180Z,11.50
2022-10-20T13:14:13.581Z,11.70
2022-10-20T13:16:48.758Z,11.77
2022-10-20T13:19:27.368Z,11.76
2022-10-20T13:21:53.833Z,11.81
2022-10-20T13:24:33.797Z,11.94
2022-10-20T13:27:03.180Z,11.93
2022-10-20T13:29:43.554Z,11.91
2022-10-20T13:32:12.577Z,11.97
2022-10-20T13:34:47.079Z,12.08
2022-10-20T13:37:36.445Z,12.09
2022-10-20T13:40:14.690Z,12.09
2022-10-20T13:42:59.329Z,12.03
2022-10-20T13:45:38.229Z,12.09
2022-10-20T13:48:34.529Z,12.06
2022-10-20T13:51:06.768Z,12.09
2022-10-20T13:53:39.580Z,12.11
2022-10-20T13:56:07.800Z,12.03
2022-10-20T13:58:34.868Z,12.04
2022-10-20T14:01:03.101Z,11.98
2022-10-20T14:03:31.967Z,12.03
2022-10-20T14:05:59.262Z,12.01
2022-10-20T14:08:25.928Z,11.93
2022-10-20T14:10:55.858Z,11.96
2022-10-20T14:13:25.853Z,11.83
2022-10-20T14:15:55.210Z,11.76
2022-10-20T14:18:26.324Z,11.78
2022-10-20T14:21:00.207Z,11.64
2022-10-20T14:23:31.659Z,11.60
2022-10-20T14:25:59.126Z,11.57
2022-10-20T14:28:29.352Z,11.46
2022-10-20T14:30:55.983Z,11.50
2022-10-20T14:33:22.471Z,11.53
2022-10-20T14:35:54.629Z,11.50
2022-10-20T14:38:37.956Z,11.43
2022-10-20T14:41:08.276Z,11.40
2022-10-20T14:43:48.283Z,11.45
2022-10-20T14:46:32.762Z,11.42
2022-10-20T14:49:00.714Z,11.40
2022-10-20T14:51:47.599Z,11.36
2022-10-20T14:54:20.509Z,11.36
2022-10-20T14:56:48.596Z,11.40
2022-10-20T14:59:17.411Z,11.53
2022-10-20T15:02:23.284Z,11.50
2022-10-20T15:04:53.114Z,11.46
2022-10-20T15:07:33.998Z,11.54
2022-10-20T15:10:09.019Z,11.51
2022-10-20T15:12:48.192Z,11.49
2022-10-20T15:15:22.088Z,11.54
2022-10-20T15:17:52.281Z,11.63
2022-10-20T15:20:39.306Z,11.73
2022-10-20T15:23:05.682Z,11.58
2022-10-20T15:25:43.546Z,11.70
2022-10-20T15:28:51.494Z,11.71
2022-10-20T15:31:23.618Z,11.58
2022-10-20T15:33:51.635Z,11.49
2022-10-20T15:36:29.374Z,11.45
2022-10-20T15:38:56.498Z,11.35
2022-10-20T15:41:26.848Z,11.41
2022-10-20T15:43:53.284Z,11.36
2022-10-20T15:46:20.321Z,11.45
2022-10-20T15:48:47.258Z,11.36
2022-10-20T15:51:19.006Z,11.32
2022-10-20T15:53:46.987Z,11.26
2022-10-20T15:56:13.457Z,11.22
2022-10-20T15:58:40.074Z,11.18
2022-10-20T16:01:07.744Z,11.12
2022-10-20T16:03:35.686Z,11.03
2022-10-20T16:06:02.009Z,10.99
2022-10-20T16:08:28.574Z,11.04
2022-10-20T16:10:56.132Z,10.94
2022-10-20T16:13:22.626Z,10.96
2022-10-20T16:15:49.030Z,10.84
2022-10-20T16:18:15.342Z,10.85
2022-10-20T16:20:41.656Z,10.75
2022-10-20T16:23:08.058Z,10.68
2022-10-20T16:25:34.450Z,10.52
2022-10-20T16:28:00.810Z,10.71
2022-10-20T16:30:27.271Z,10.68
2022-10-20T16:32:54.210Z,10.55
2022-10-20T16:35:20.577Z,10.53
2022-10-20T16:37:47.192Z,10.53
2022-10-20T16:40:13.652Z,10.37
2022-10-20T16:42:40.029Z,10.50
2022-10-20T16:45:06.926Z,10.39
2022-10-20T16:47:33.314Z,10.33
2022-10-20T16:49:59.660Z,10.23
2022-10-20T16:52:26.030Z,10.21
2022-10-20T16:54:52.394Z,10.27
2022-10-20T16:57:18.890Z,10.20
2022-10-20T16:59:49.812Z,10.16
2022-10-20T17:02:19.339Z,10.25
2022-10-20T17:04:49.744Z,10.14
2022-10-20T17:07:17.008Z,10.15
2022-10-20T17:09:43.512Z,10.03
2022-10-20T17:12:10.052Z,9.97
2022-10-20T17:14:36.485Z,9.99
2022-10-20T17:17:02.833Z,10.04
2022-10-20T17:19:29.395Z,10.01
2022-10-20T17:21:56.340Z,10.09
2022-10-20T17:24:24.302Z,10.05
2022-10-20T17:26:50.719Z,10.03
2022-10-20T17:29:17.082Z,10.11
2022-10-20T17:31:43.556Z,10.20
2022-10-20T17:34:10.065Z,10.20
2022-10-20T17:36:36.413Z,10.33
2022-10-20T17:39:06.282Z,10.35
2022-10-20T17:41:32.938Z,10.32
2022-10-20T17:44:04.434Z,10.34
2022-10-20T17:46:31.109Z,10.35
2022-10-20T17:48:57.437Z,10.25
2022-10-20T17:51:27.854Z,10.32
2022-10-20T17:53:58.009Z,10.25
2022-10-20T17:56:32.615Z,10.20
2022-10-20T17:59:00.503Z,10.18
2022-10-20T18:01:30.449Z,10.24
2022-10-20T18:04:06.667Z,10.13
2022-10-20T18:06:34.882Z,10.11
2022-10-20T18:09:05.589Z,10.10
2022-10-20T18:11:34.260Z,10.09
2022-10-20T18:14:01.151Z,10.19
2022-10-20T18:16:30.462Z,10.04
2022-10-20T18:21:30.911Z,10.02
2022-10-20T18:24:02.074Z,9.95
2022-10-20T18:26:29.781Z,10.01
2022-10-20T18:28:58.752Z,9.75
2022-10-20T18:31:27.387Z,9.88
2022-10-20T18:34:02.616Z,9.81
2022-10-20T18:36:33.307Z,9.84
2022-10-20T18:39:00.505Z,9.79
2022-10-20T18:41:32.980Z,9.76
2022-10-20T18:44:01.568Z,9.72
2022-10-20T18:46:30.094Z,9.92
2022-10-20T18:48:57.382Z,9.86
2022-10-20T18:51:24.030Z,9.78
2022-10-20T18:53:55.525Z,9.77
2022-10-20T18:56:24.506Z,9.72
2022-10-20T18:58:53.679Z,9.73
2022-10-20T19:01:22.474Z,9.66
2022-10-20T19:03:51.074Z,9.74
2022-10-20T19:06:21.841Z,9.75
2022-10-20T19:08:52.794Z,9.71
2022-10-20T19:11:20.311Z,9.83
2022-10-20T19:13:46.902Z,9.67
2022-10-20T19:16:17.213Z,9.71
2022-10-20T19:18:49.369Z,9.83
2022-10-20T19:21:16.797Z,9.76
2022-10-20T19:23:50.031Z,9.73
2022-10-20T19:26:22.655Z,9.70
2022-10-20T19:28:58.252Z,9.70
2022-10-20T19:31:29.720Z,9.63
2022-10-20T19:34:02.083Z,9.73
2022-10-20T19:36:29.684Z,9.71
2022-10-20T19:38:56.157Z,9.78
2022-10-20T19:41:23.390Z,9.70
2022-10-20T19:43:49.846Z,9.81
2022-10-20T19:46:18.281Z,9.89
2022-10-20T19:48:46.599Z,9.94
2022-10-20T19:51:15.138Z,9.99
2022-10-20T19:53:41.994Z,10.01
2022-10-20T19:56:09.025Z,9.94
2022-10-20T19:58:38.490Z,9.94
2022-10-20T20:01:07.243Z,9.99
2022-10-20T20:03:33.827Z,10.05
2022-10-20T20:06:01.661Z,10.05
2022-10-20T20:08:28.170Z,10.03
2022-10-20T20:10:56.413Z,10.12
2022-10-20T20:13:23.810Z,10.13
2022-10-20T20:15:50.582Z,10.09
2022-10-20T20:18:17.860Z,10.22
2022-10-20T20:20:47.065Z,10.10
2022-10-20T20:23:14.997Z,10.22
2022-10-20T20:25:44.075Z,10.19
2022-10-20T20:28:11.062Z,10.18
2022-10-20T20:30:37.835Z,10.17
2022-10-20T20:33:04.785Z,10.15
2022-10-20T20:35:31.282Z,10.13
2022-10-20T20:37:57.628Z,10.05
2022-10-20T20:40:24.065Z,10.05
2022-10-20T20:42:50.416Z,10.00
2022-10-20T20:45:16.846Z,10.00
2022-10-20T20:47:46.575Z,10.02
2022-10-20T20:50:12.903Z,9.99
2022-10-20T20:52:39.237Z,9.99
2022-10-20T20:55:05.708Z,9.97
2022-10-20T20:57:32.031Z,9.91
2022-10-20T20:59:58.393Z,9.86
2022-10-20T21:02:24.719Z,9.84
2022-10-20T21:04:51.040Z,9.87
2022-10-20T21:07:17.365Z,9.62
2022-10-20T21:09:43.718Z,9.73
2022-10-20T21:12:10.055Z,9.71
2022-10-20T21:14:36.365Z,9.66
2022-10-20T21:17:02.735Z,9.76
2022-10-20T21:19:29.734Z,9.63
2022-10-20T21:22:01.107Z,9.65
2022-10-20T21:24:27.689Z,9.75
2022-10-20T21:26:54.510Z,9.70
2022-10-20T21:29:20.879Z,9.72
2022-10-20T21:31:47.246Z,9.64
2022-10-20T21:34:14.278Z,9.67
2022-10-20T21:36:40.994Z,9.66
2022-10-20T21:39:11.439Z,9.58
2022-10-20T21:41:38.249Z,9.57
2022-10-20T21:44:07.193Z,9.56
2022-10-20T21:46:36.981Z,9.49
2022-10-20T21:49:06.295Z,9.53
2022-10-20T21:51:36.922Z,9.64
2022-10-20T21:54:08.565Z,9.72
2022-10-20T21:56:37.158Z,9.77
2022-10-20T21:59:05.185Z,9.84
2022-10-20T22:01:31.768Z,9.86
2022-10-20T22:03:58.149Z,9.93
2022-10-20T22:06:26.337Z,10.00
2022-10-20T22:08:55.597Z,10.02
2022-10-20T22:11:29.019Z,10.15
2022-10-20T22:13:56.193Z,10.22
2022-10-20T22:16:26.025Z,10.23
2022-10-20T22:18:57.119Z,10.21
2022-10-20T22:21:24.065Z,10.23
2022-10-20T22:23:53.909Z,10.29
2022-10-20T22:26:20.744Z,10.23
2022-10-20T22:28:47.165Z,10.38
2022-10-20T22:31:15.921Z,10.43
2022-10-20T22:33:44.426Z,10.40
2022-10-20T22:36:10.762Z,10.40
2022-10-20T22:38:37.123Z,10.46
2022-10-20T22:41:04.647Z,10.51
2022-10-20T22:43:31.191Z,10.45
2022-10-20T22:45:57.711Z,10.43
2022-10-20T22:48:24.373Z,10.36
2022-10-20T22:50:50.718Z,10.38
2022-10-20T22:53:17.239Z,10.39
2022-10-20T22:55:43.600Z,10.36
2022-10-20T22:58:10.114Z,10.45
2022-10-20T23:00:38.827Z,10.40
2022-10-20T23:03:05.332Z,10.35
2022-10-20T23:05:31.672Z,10.28
2022-10-20T23:07:58.670Z,10.27
2022-10-20T23:10:25.030Z,10.18
2022-10-20T23:12:51.377Z,10.22
2022-10-20T23:15:17.827Z,10.18
2022-10-20T23:17:44.428Z,10.11
2022-10-20T23:20:11.055Z,10.15
2022-10-20T23:22:37.393Z,10.11
2022-10-20T23:25:04.157Z,10.13
2022-10-20T23:27:33.592Z,10.08
2022-10-20T23:29:59.952Z,10.11
2022-10-20T23:32:26.274Z,10.07
2022-10-20T23:34:52.746Z,10.14
2022-10-20T23:37:20.917Z,10.30
2022-10-20T23:39:47.225Z,10.08
2022-10-20T23:42:13.637Z,10.03
2022-10-20T23:44:40.086Z,10.06
2022-10-20T23:47:06.405Z,10.10
2022-10-20T23:49:32.725Z,10.16
2022-10-20T23:51:59.033Z,10.18
2022-10-20T23:54:25.356Z,10.21
2022-10-20T23:56:52.139Z,10.13
2022-10-20T23:59:18.463Z,10.06
